Time;durP1;ratioP1;P1;durP2;ratioP2;P2;SDS_P1;SDS_P2;PMS_P1;PMS_P2;Temp;Humidity;BMP_temperature;BMP_pressure;BME280_temperature;BME280_humidity;BME280_pressure;Samples;Min_cycle;Max_cycle;Signal;HPM_P1;HPM_P2
2022/04/08 00:02:53;;;;;;;1.05;0.73;;;19.30;70.00;;;;;;7903127;28;20176;-53
2022/04/08 00:06:38;;;;;;;1.45;0.73;;;19.30;70.30;;;;;;7902662;28;20342;-50
2022/04/08 00:10:24;;;;;;;1.38;0.70;;;19.30;70.40;;;;;;7902449;28;20176;-51
2022/04/08 00:14:09;;;;;;;0.52;0.50;;;19.30;70.40;;;;;;7902391;28;20310;-52
2022/04/08 00:17:54;;;;;;;1.40;0.40;;;19.30;70.40;;;;;;7901900;28;20647;-52
2022/04/08 00:21:41;;;;;;;1.10;0.70;;;19.30;71.20;;;;;;7902164;28;20176;-51
2022/04/08 00:25:26;;;;;;;0.88;0.57;;;19.30;70.30;;;;;;7902186;28;20200;-53
2022/04/08 00:29:13;;;;;;;0.70;0.50;;;19.20;70.10;;;;;;7901901;28;20237;-53
2022/04/08 00:32:59;;;;;;;1.63;0.80;;;19.30;70.30;;;;;;7902047;28;20206;-53
2022/04/08 00:36:44;;;;;;;2.45;0.80;;;19.20;70.00;;;;;;7901892;28;20208;-50
2022/04/08 00:40:30;;;;;;;3.97;0.73;;;19.20;70.10;;;;;;7901525;28;20533;-50
2022/04/08 00:44:16;;;;;;;0.60;0.60;;;19.20;70.20;;;;;;7901757;28;20204;-50
2022/04/08 00:48:06;;;;;;;1.60;0.65;;;19.20;69.90;;;;;;7901807;28;20180;-51
2022/04/08 00:51:52;;;;;;;0.75;0.50;;;19.20;69.50;;;;;;7900841;28;20184;-50
2022/04/08 00:55:39;;;;;;;1.38;1.08;;;19.10;69.80;;;;;;7901561;28;20704;-50
2022/04/08 00:59:26;;;;;;;1.20;0.90;;;19.10;69.20;;;;;;7901077;28;20168;-50
2022/04/08 01:03:11;;;;;;;1.63;0.82;;;19.10;69.50;;;;;;7901135;28;20719;-50
2022/04/08 01:06:57;;;;;;;1.27;0.70;;;19.00;69.60;;;;;;7900992;28;20606;-51
2022/04/08 01:10:44;;;;;;;2.45;0.82;;;19.00;69.70;;;;;;7901033;28;20180;-50
2022/04/08 01:14:29;;;;;;;2.50;1.08;;;19.00;69.30;;;;;;7900760;28;20302;-51
2022/04/08 01:18:14;;;;;;;0.80;0.68;;;19.00;68.80;;;;;;7900858;28;20188;-50
2022/04/08 01:22:00;;;;;;;3.30;0.95;;;18.90;69.00;;;;;;7900494;28;20184;-53
2022/04/08 01:25:46;;;;;;;1.55;0.93;;;18.90;68.80;;;;;;7900749;28;20738;-52
2022/04/08 01:29:31;;;;;;;1.30;0.63;;;18.90;68.90;;;;;;7900333;28;20184;-50
2022/04/08 01:33:17;;;;;;;1.88;0.90;;;18.80;69.00;;;;;;7900515;28;20172;-52
2022/04/08 01:37:02;;;;;;;1.83;0.70;;;18.90;69.10;;;;;;7900322;28;20212;-51
2022/04/08 01:40:48;;;;;;;8.80;0.98;;;18.80;69.10;;;;;;7900256;28;20176;-50
2022/04/08 01:44:34;;;;;;;0.95;0.70;;;18.80;68.80;;;;;;7900426;28;20192;-50
2022/04/08 01:48:19;;;;;;;2.15;0.77;;;18.80;68.80;;;;;;7900371;28;20208;-52
2022/04/08 01:52:06;;;;;;;2.72;0.90;;;18.80;68.80;;;;;;7899966;28;20200;-50
2022/04/08 01:55:51;;;;;;;1.88;0.73;;;18.80;68.80;;;;;;7900183;28;20200;-50
2022/04/08 01:59:37;;;;;;;3.08;1.02;;;18.70;68.60;;;;;;7900055;28;20177;-50
2022/04/08 02:03:22;;;;;;;3.05;0.90;;;18.70;68.40;;;;;;7899956;28;20229;-53
2022/04/08 02:07:08;;;;;;;5.07;0.88;;;18.70;68.20;;;;;;7900188;28;20177;-49
2022/04/08 02:10:53;;;;;;;1.10;0.80;;;18.70;68.30;;;;;;7900251;28;20192;-50
2022/04/08 02:14:39;;;;;;;2.28;0.68;;;18.70;68.20;;;;;;7900011;28;20217;-52
2022/04/08 02:18:24;;;;;;;2.78;0.68;;;18.70;68.50;;;;;;7900102;28;20298;-50
2022/04/08 02:22:10;;;;;;;1.20;0.80;;;18.60;68.10;;;;;;7899771;28;20179;-51
2022/04/08 02:25:55;;;;;;;2.63;0.65;;;18.70;68.40;;;;;;7899903;28;20298;-54
2022/04/08 02:29:41;;;;;;;1.52;0.70;;;18.60;68.40;;;;;;7899518;28;20173;-52
2022/04/08 02:33:26;;;;;;;1.52;0.60;;;18.60;68.20;;;;;;7899647;28;20185;-50
2022/04/08 02:37:12;;;;;;;0.45;0.45;;;18.60;68.10;;;;;;7899600;28;20262;-52
2022/04/08 02:40:57;;;;;;;1.80;0.68;;;18.60;68.10;;;;;;7899603;28;20187;-53
2022/04/08 02:44:43;;;;;;;1.52;0.60;;;18.60;67.90;;;;;;7905387;28;20734;-50
2022/04/08 02:48:28;;;;;;;2.47;0.52;;;18.60;68.30;;;;;;7905202;28;20176;-50
2022/04/08 02:52:14;;;;;;;1.58;0.80;;;18.60;68.30;;;;;;7904745;28;20212;-52
2022/04/08 02:56:00;;;;;;;0.60;0.60;;;18.60;68.10;;;;;;7904868;28;20205;-49
2022/04/08 02:59:45;;;;;;;1.35;0.45;;;18.50;68.00;;;;;;7904593;28;20215;-50
2022/04/08 03:03:31;;;;;;;1.00;0.70;;;18.50;68.40;;;;;;7904778;28;20172;-51
2022/04/08 03:07:16;;;;;;;1.02;0.68;;;18.50;68.40;;;;;;7904639;28;20185;-50
2022/04/08 03:11:02;;;;;;;3.00;0.73;;;18.50;68.20;;;;;;7904258;28;20704;-50
2022/04/08 03:14:47;;;;;;;1.52;0.60;;;18.50;68.10;;;;;;7904327;28;20205;-50
2022/04/08 03:18:33;;;;;;;4.25;0.50;;;18.50;68.20;;;;;;7904429;28;20240;-50
2022/04/08 03:22:20;;;;;;;0.40;0.40;;;18.50;68.20;;;;;;7903943;28;20275;-50
2022/04/08 03:26:06;;;;;;;1.48;0.63;;;18.50;68.20;;;;;;7904028;28;20227;-50
2022/04/08 03:29:51;;;;;;;2.13;0.77;;;18.50;68.10;;;;;;7903633;28;20173;-50
2022/04/08 03:33:37;;;;;;;0.60;0.52;;;18.50;68.20;;;;;;7903762;28;20188;-52
2022/04/08 03:37:24;;;;;;;0.73;0.57;;;18.50;68.00;;;;;;7904421;28;20762;-51
2022/04/08 03:41:09;;;;;;;0.90;0.35;;;18.40;68.10;;;;;;7903495;28;20180;-52
2022/04/08 03:44:54;;;;;;;1.67;0.60;;;18.40;68.20;;;;;;7903643;28;20192;-50
2022/04/08 03:48:43;;;;;;;1.23;0.57;;;18.40;68.10;;;;;;7903618;28;20180;-53
2022/04/08 03:52:32;;;;;;;1.15;0.50;;;18.50;68.10;;;;;;7902558;28;20193;-53
2022/04/08 03:56:18;;;;;;;1.75;0.52;;;18.40;68.00;;;;;;7903039;28;20216;-53
2022/04/08 04:00:04;;;;;;;7.57;0.90;;;18.50;68.90;;;;;;7930350;28;20826;-51
2022/04/08 04:03:49;;;;;;;3.10;0.88;;;18.40;68.10;;;;;;7934806;28;20192;-52
2022/04/08 04:07:35;;;;;;;3.38;0.77;;;18.40;68.00;;;;;;7934806;28;20179;-55
2022/04/08 04:11:21;;;;;;;3.65;0.57;;;18.40;68.10;;;;;;7934676;28;20203;-53
2022/04/08 04:15:08;;;;;;;1.73;0.60;;;18.40;68.20;;;;;;7933384;28;20207;-53
2022/04/08 04:18:54;;;;;;;8.48;0.80;;;18.40;68.00;;;;;;7934239;28;20180;-54
2022/04/08 04:22:39;;;;;;;0.77;0.70;;;18.30;68.20;;;;;;7933821;28;20171;-55
2022/04/08 04:26:25;;;;;;;1.85;0.60;;;18.30;68.00;;;;;;7933517;28;20215;-54
2022/04/08 04:30:10;;;;;;;1.30;0.50;;;18.40;68.30;;;;;;7933376;28;20183;-51
2022/04/08 04:33:56;;;;;;;4.40;0.70;;;18.30;68.80;;;;;;7933649;28;20200;-55
2022/04/08 04:37:41;;;;;;;3.70;0.55;;;18.30;68.20;;;;;;7933445;28;20264;-54
2022/04/08 04:41:27;;;;;;;4.03;0.60;;;18.30;68.20;;;;;;7933141;28;20180;-55
2022/04/08 04:45:13;;;;;;;1.90;0.68;;;18.30;68.10;;;;;;7933582;28;20257;-53
2022/04/08 04:48:59;;;;;;;2.22;0.90;;;18.30;68.20;;;;;;7933302;28;20248;-51
2022/04/08 04:52:44;;;;;;;1.95;0.60;;;18.30;68.20;;;;;;7932646;28;20241;-53
2022/04/08 04:56:29;;;;;;;1.67;0.52;;;18.30;68.00;;;;;;7932706;28;20570;-51
2022/04/08 05:00:16;;;;;;;1.77;0.70;;;18.30;67.90;;;;;;7932645;28;20176;-52
2022/04/08 05:04:02;;;;;;;3.00;0.70;;;18.20;67.80;;;;;;7932435;28;20234;-53
2022/04/08 05:07:47;;;;;;;1.42;0.57;;;18.20;67.80;;;;;;7932443;28;20187;-51
2022/04/08 05:11:33;;;;;;;4.72;0.80;;;18.20;68.20;;;;;;7932398;28;20182;-53
2022/04/08 05:15:19;;;;;;;2.63;0.60;;;18.30;68.10;;;;;;7932343;28;20272;-53
2022/04/08 05:19:04;;;;;;;2.42;0.65;;;18.20;68.10;;;;;;7932204;28;20168;-52
2022/04/08 05:22:50;;;;;;;1.17;0.52;;;18.20;68.10;;;;;;7932226;28;20173;-53
2022/04/08 05:26:36;;;;;;;1.15;0.73;;;18.20;68.40;;;;;;7932031;28;20239;-52
2022/04/08 05:30:21;;;;;;;3.05;0.70;;;18.20;68.30;;;;;;7931781;28;20306;-53
2022/04/08 05:34:07;;;;;;;2.13;0.70;;;18.20;68.30;;;;;;7932089;28;20235;-53
2022/04/08 05:37:52;;;;;;;0.80;0.63;;;18.20;68.20;;;;;;7932405;28;20204;-52
2022/04/08 05:41:38;;;;;;;3.80;0.70;;;18.20;68.20;;;;;;7932001;28;20553;-54
2022/04/08 05:45:24;;;;;;;0.75;0.50;;;18.10;68.00;;;;;;7931912;28;20196;-54
2022/04/08 05:49:09;;;;;;;1.17;0.60;;;18.10;68.00;;;;;;7931602;28;20211;-53
2022/04/08 05:52:54;;;;;;;1.33;0.55;;;18.20;68.20;;;;;;7932136;28;20195;-53
2022/04/08 05:56:40;;;;;;;0.98;0.60;;;18.10;68.30;;;;;;7931599;28;20207;-52
2022/04/08 06:00:25;;;;;;;1.38;0.52;;;18.10;68.60;;;;;;7931498;28;20180;-52
2022/04/08 06:04:11;;;;;;;3.30;1.02;;;18.10;68.10;;;;;;7931613;28;20192;-53
2022/04/08 06:07:56;;;;;;;9.32;0.75;;;18.10;69.40;;;;;;7931391;28;20183;-53
2022/04/08 06:11:44;;;;;;;2.75;1.10;;;18.10;69.80;;;;;;7931322;28;20165;-53
2022/04/08 06:15:31;;;;;;;7.60;0.70;;;18.20;69.60;;;;;;7931416;28;20203;-53
2022/04/08 06:19:16;;;;;;;4.57;1.92;;;18.10;70.40;;;;;;7936917;28;20183;-53
2022/04/08 06:23:02;;;;;;;6.80;1.42;;;18.20;69.30;;;;;;7937549;28;20645;-53
2022/04/08 06:26:47;;;;;;;4.05;0.63;;;18.20;70.40;;;;;;7937287;28;20202;-53
2022/04/08 06:30:35;;;;;;;6.00;0.90;;;18.20;69.20;;;;;;7936897;28;20172;-53
2022/04/08 06:34:20;;;;;;;4.60;0.80;;;18.20;69.70;;;;;;7937089;28;20194;-53
2022/04/08 06:38:07;;;;;;;1.88;0.85;;;18.20;69.20;;;;;;7937305;28;20176;-53
2022/04/08 06:41:53;;;;;;;6.50;0.75;;;18.10;69.20;;;;;;7928011;28;20271;-54
2022/04/08 06:45:39;;;;;;;7.40;1.25;;;18.10;69.50;;;;;;7903951;28;20206;-55
2022/04/08 06:49:25;;;;;;;2.85;1.27;;;18.10;69.50;;;;;;7903396;28;20176;-53
2022/04/08 06:53:10;;;;;;;5.75;0.85;;;18.20;69.50;;;;;;7904193;28;20169;-53
2022/04/08 06:56:56;;;;;;;7.60;0.98;;;18.10;69.70;;;;;;7903465;28;20212;-51
2022/04/08 07:00:42;;;;;;;6.07;1.10;;;18.10;69.80;;;;;;7904139;28;20176;-53
2022/04/08 07:04:27;;;;;;;5.20;0.70;;;18.10;70.10;;;;;;7903692;28;20192;-52
2022/04/08 07:08:13;;;;;;;9.63;1.10;;;18.10;71.20;;;;;;7903586;28;20180;-52
2022/04/08 07:11:59;;;;;;;3.92;0.90;;;18.10;70.40;;;;;;7926601;28;20183;-53
2022/04/08 07:15:44;;;;;;;4.22;0.68;;;18.10;70.40;;;;;;7934807;28;20211;-52
2022/04/08 07:19:30;;;;;;;2.28;0.93;;;18.10;70.60;;;;;;7934798;28;20254;-53
2022/04/08 07:23:16;;;;;;;3.63;0.80;;;18.10;70.70;;;;;;7935090;28;20179;-53
2022/04/08 07:27:01;;;;;;;5.78;0.60;;;18.10;70.80;;;;;;7934461;28;20669;-53
2022/04/08 07:30:48;;;;;;;7.53;0.68;;;18.10;70.70;;;;;;7934507;28;20190;-56
2022/04/08 07:34:35;;;;;;;7.97;0.80;;;18.10;70.70;;;;;;7916661;28;20554;-53
2022/04/08 07:38:22;;;;;;;2.30;0.63;;;18.20;70.90;;;;;;7934585;28;20174;-53
2022/04/08 07:42:08;;;;;;;5.13;0.90;;;18.10;70.90;;;;;;7933950;28;20183;-53
2022/04/08 07:45:53;;;;;;;1.75;0.70;;;18.10;70.80;;;;;;7934101;28;20203;-53
2022/04/08 07:49:38;;;;;;;4.20;0.80;;;18.10;70.90;;;;;;7933569;27;20220;-51
2022/04/08 07:53:24;;;;;;;4.10;1.00;;;18.10;70.70;;;;;;7933884;27;20638;-53
2022/04/08 07:57:13;;;;;;;5.72;0.70;;;18.10;71.10;;;;;;7933908;28;20219;-53
2022/04/08 08:00:58;;;;;;;2.92;0.70;;;18.10;71.20;;;;;;7933474;28;20211;-52
2022/04/08 08:04:44;;;;;;;5.18;0.80;;;18.10;71.30;;;;;;7933348;28;20195;-52
2022/04/08 08:08:30;;;;;;;5.75;0.70;;;18.10;71.20;;;;;;7933417;28;20221;-53
2022/04/08 08:12:15;;;;;;;5.25;0.88;;;18.20;70.80;;;;;;7933109;28;20256;-51
2022/04/08 08:16:01;;;;;;;0.68;0.50;;;18.10;71.20;;;;;;7933067;28;20202;-54
2022/04/08 08:19:46;;;;;;;4.43;0.65;;;18.10;71.40;;;;;;7932844;28;20176;-55
2022/04/08 08:23:32;;;;;;;3.63;0.60;;;18.10;71.40;;;;;;7932964;28;20193;-53
2022/04/08 08:27:17;;;;;;;0.75;0.50;;;18.10;71.20;;;;;;7932770;28;20180;-54
2022/04/08 08:31:04;;;;;;;4.93;0.73;;;18.10;71.00;;;;;;7932508;28;20176;-53
2022/04/08 08:34:49;;;;;;;4.68;0.70;;;18.10;71.50;;;;;;7932421;28;20231;-54
2022/04/08 08:38:35;;;;;;;2.30;0.70;;;18.10;71.40;;;;;;7932709;28;20167;-53
2022/04/08 08:42:21;;;;;;;0.80;0.60;;;18.10;71.50;;;;;;7931899;28;20176;-53
2022/04/08 08:46:07;;;;;;;0.80;0.40;;;18.10;71.50;;;;;;7932297;28;20237;-55
2022/04/08 08:49:53;;;;;;;1.83;0.65;;;18.10;71.60;;;;;;7931988;28;20653;-56
2022/04/08 08:53:41;;;;;;;0.98;0.50;;;18.10;71.70;;;;;;7932224;28;20180;-55
2022/04/08 08:57:27;;;;;;;0.85;0.50;;;18.10;71.70;;;;;;7932141;28;20255;-55
2022/04/08 09:01:12;;;;;;;1.77;0.50;;;18.00;71.50;;;;;;7932050;28;20243;-53
2022/04/08 09:04:58;;;;;;;4.38;0.60;;;18.00;71.70;;;;;;7931753;28;20202;-52
2022/04/08 09:08:55;;;;;;;3.13;0.50;;;18.00;71.60;;;;;;7931613;28;20179;-52
2022/04/08 09:12:43;;;;;;;2.97;0.40;;;18.00;71.80;;;;;;7931588;28;20186;-52
2022/04/08 09:16:30;;;;;;;1.02;0.43;;;18.00;71.50;;;;;;7931513;28;20204;-54
2022/04/08 09:20:15;;;;;;;2.63;0.70;;;18.00;71.30;;;;;;7931300;28;20172;-53
2022/04/08 09:24:06;;;;;;;4.00;0.93;;;18.00;71.80;;;;;;7931369;28;20275;-52
2022/04/08 09:27:55;;;;;;;2.47;0.63;;;18.00;71.40;;;;;;7930902;28;20224;-52
2022/04/08 09:31:40;;;;;;;1.45;0.50;;;18.00;70.90;;;;;;7930974;28;20172;-52
2022/04/08 09:35:29;;;;;;;4.68;1.00;;;18.00;71.20;;;;;;7931265;28;20720;-55
2022/04/08 09:39:14;;;;;;;14.05;0.80;;;18.00;71.70;;;;;;7931223;28;20191;-54
2022/04/08 09:43:00;;;;;;;2.60;0.60;;;18.00;71.50;;;;;;7930836;28;20178;-55
2022/04/08 09:46:45;;;;;;;6.40;0.80;;;18.00;71.50;;;;;;7930823;28;20212;-53
2022/04/08 09:50:32;;;;;;;3.03;0.82;;;17.90;71.70;;;;;;7930521;28;20203;-54
2022/04/08 09:54:21;;;;;;;1.63;0.50;;;18.00;72.00;;;;;;7936630;28;20202;-53
2022/04/08 09:58:11;;;;;;;3.67;0.40;;;18.00;72.00;;;;;;7937556;28;20179;-53
2022/04/08 10:02:01;;;;;;;5.97;0.70;;;18.00;72.00;;;;;;7937158;28;20180;-53
2022/04/08 10:05:47;;;;;;;2.35;0.95;;;18.00;72.10;;;;;;7936883;28;20590;-56
2022/04/08 10:09:40;;;;;;;2.70;0.55;;;18.00;72.00;;;;;;7936879;28;20238;-54
2022/04/08 10:13:54;;;;;;;3.47;0.60;;;18.00;71.90;;;;;;7936972;28;20176;-54
2022/04/08 10:17:39;;;;;;;2.88;0.47;;;18.00;71.90;;;;;;7936808;28;20205;-54
2022/04/08 10:21:35;;;;;;;2.08;0.40;;;17.90;72.00;;;;;;7936599;28;20262;-54
2022/04/08 10:25:26;;;;;;;0.98;0.40;;;17.90;72.00;;;;;;7936462;28;20572;-54
2022/04/08 10:29:11;;;;;;;4.35;0.50;;;17.90;72.00;;;;;;7936512;28;20195;-54
2022/04/08 10:33:02;;;;;;;3.03;0.52;;;17.90;72.00;;;;;;7936543;28;20209;-54
2022/04/08 10:36:47;;;;;;;2.58;0.60;;;17.90;72.10;;;;;;7936035;28;20207;-55
2022/04/08 10:40:35;;;;;;;4.95;0.73;;;17.90;72.10;;;;;;7935806;28;20263;-55
2022/04/08 10:44:37;;;;;;;2.03;0.57;;;17.90;72.10;;;;;;7935883;27;20275;-55
2022/04/08 10:48:30;;;;;;;0.95;0.50;;;17.90;72.20;;;;;;7936306;28;20180;-54
2022/04/08 10:52:18;;;;;;;1.65;0.50;;;17.90;71.70;;;;;;7936104;28;20183;-53
2022/04/08 10:56:13;;;;;;;4.05;0.98;;;17.90;71.70;;;;;;7936382;28;20204;-53
2022/04/08 10:59:58;;;;;;;2.75;0.50;;;17.90;71.40;;;;;;7936174;28;20553;-55
2022/04/08 11:03:51;;;;;;;0.88;0.60;;;17.90;71.80;;;;;;7935646;28;20192;-54
2022/04/08 11:07:44;;;;;;;2.78;0.63;;;17.90;71.90;;;;;;7936582;28;20176;-55
2022/04/08 11:11:31;;;;;;;0.47;0.47;;;17.80;71.80;;;;;;7936247;28;20252;-53
2022/04/08 11:15:19;;;;;;;5.03;0.90;;;17.80;71.50;;;;;;7919358;28;20651;-55
2022/04/08 11:19:07;;;;;;;6.22;0.85;;;17.90;72.50;;;;;;7905270;28;20173;-53
2022/04/08 11:22:54;;;;;;;4.07;0.70;;;17.80;71.60;;;;;;7904095;28;20215;-53
2022/04/08 11:26:42;;;;;;;4.25;0.82;;;17.80;71.70;;;;;;7904258;28;20193;-56
2022/04/08 11:30:29;;;;;;;4.05;0.65;;;17.80;71.70;;;;;;7903745;28;20189;-54
2022/04/08 11:34:15;;;;;;;5.60;0.90;;;17.80;71.70;;;;;;7903772;28;20899;-53
2022/04/08 11:38:17;;;;;;;2.78;0.90;;;17.80;71.70;;;;;;7903844;28;20230;-55
2022/04/08 11:42:04;;;;;;;2.38;0.63;;;17.80;71.80;;;;;;7931010;28;20179;-52
2022/04/08 11:45:52;;;;;;;9.38;1.00;;;17.80;71.80;;;;;;7924827;28;20204;-53
2022/04/08 11:49:38;;;;;;;5.28;0.70;;;17.80;72.00;;;;;;7902068;28;20245;-55
2022/04/08 11:53:24;;;;;;;4.90;1.00;;;17.80;72.10;;;;;;7914057;28;20896;-53
2022/04/08 11:57:09;;;;;;;3.33;0.90;;;17.80;72.20;;;;;;7933664;28;20211;-53
2022/04/08 12:00:58;;;;;;;9.80;1.00;;;17.90;72.30;;;;;;7933687;28;20244;-55
2022/04/08 12:04:44;;;;;;;3.88;1.08;;;17.90;72.20;;;;;;7912233;28;20208;-53
2022/04/08 12:08:30;;;;;;;7.32;0.80;;;17.90;72.20;;;;;;7901851;28;20211;-52
2022/04/08 12:12:25;;;;;;;3.05;1.30;;;17.90;72.30;;;;;;7930763;28;20226;-53
2022/04/08 12:16:13;;;;;;;3.95;1.25;;;17.80;72.40;;;;;;7932116;28;20215;-53
2022/04/08 12:19:58;;;;;;;3.97;1.10;;;17.80;72.50;;;;;;7932951;28;20171;-54
2022/04/08 12:23:44;;;;;;;5.57;1.30;;;17.90;72.50;;;;;;7933057;28;20678;-55
2022/04/08 12:27:31;;;;;;;3.42;1.23;;;17.80;72.60;;;;;;7901490;28;20185;-55
2022/04/08 12:31:19;;;;;;;3.38;1.20;;;17.90;72.60;;;;;;7901079;28;20529;-55
2022/04/08 12:35:08;;;;;;;7.70;1.30;;;17.90;72.70;;;;;;7920266;28;20203;-53
2022/04/08 12:38:54;;;;;;;8.23;1.15;;;17.90;72.80;;;;;;7931267;28;20187;-56
2022/04/08 12:42:39;;;;;;;8.77;1.70;;;17.90;72.80;;;;;;7900808;28;20181;-56
2022/04/08 12:46:25;;;;;;;4.20;0.85;;;17.90;72.80;;;;;;7900529;28;20609;-54
2022/04/08 12:50:11;;;;;;;5.00;1.40;;;17.90;72.80;;;;;;7900359;28;20231;-55
2022/04/08 12:53:58;;;;;;;3.63;1.20;;;18.00;72.80;;;;;;7900517;28;20188;-55
2022/04/08 12:57:44;;;;;;;5.28;1.63;;;18.00;72.70;;;;;;7900114;28;20215;-54
2022/04/08 13:01:29;;;;;;;2.90;1.30;;;18.10;72.70;;;;;;7900176;28;20204;-55
2022/04/08 13:05:15;;;;;;;4.25;1.40;;;18.20;72.70;;;;;;7900275;28;20216;-54
2022/04/08 13:09:01;;;;;;;6.68;1.17;;;18.20;72.70;;;;;;7902952;28;20736;-54
2022/04/08 13:12:46;;;;;;;2.78;1.42;;;18.30;72.50;;;;;;7931468;28;20205;-54
2022/04/08 13:16:32;;;;;;;8.48;1.40;;;18.30;72.40;;;;;;7931435;28;20200;-54
2022/04/08 13:20:17;;;;;;;4.85;1.70;;;18.50;72.00;;;;;;7931489;28;20535;-53
2022/04/08 13:24:03;;;;;;;3.65;1.40;;;18.50;71.90;;;;;;7928970;28;20233;-54
2022/04/08 13:27:48;;;;;;;7.47;2.08;;;18.50;72.10;;;;;;7930974;28;20656;-54
2022/04/08 13:31:34;;;;;;;8.70;2.20;;;18.60;71.00;;;;;;7930912;28;20256;-53
2022/04/08 13:35:19;;;;;;;6.45;2.00;;;18.70;70.90;;;;;;7931112;28;20946;-55
2022/04/08 13:39:05;;;;;;;4.93;1.80;;;18.70;71.00;;;;;;7921069;28;20176;-53
2022/04/08 13:42:50;;;;;;;11.02;2.47;;;18.80;70.50;;;;;;7931147;28;20888;-53
2022/04/08 13:46:36;;;;;;;9.15;2.72;;;18.90;70.10;;;;;;7930624;28;20191;-55
2022/04/08 13:50:22;;;;;;;7.80;2.40;;;18.90;69.50;;;;;;7930616;28;20244;-53
2022/04/08 13:54:07;;;;;;;7.60;2.13;;;19.00;70.00;;;;;;7926102;28;20208;-52
2022/04/08 13:57:52;;;;;;;7.78;3.03;;;19.20;68.70;;;;;;7899027;28;20670;-53
2022/04/08 14:01:38;;;;;;;15.52;2.47;;;19.30;68.10;;;;;;7899267;28;20252;-53
2022/04/08 14:05:24;;;;;;;6.85;2.80;;;19.40;68.00;;;;;;7899017;28;20345;-53
2022/04/08 14:09:09;;;;;;;6.55;2.10;;;19.50;67.70;;;;;;7903956;28;20176;-54
2022/04/08 14:12:55;;;;;;;4.53;2.83;;;19.60;67.40;;;;;;7930572;28;20180;-54
2022/04/08 14:16:40;;;;;;;15.38;3.33;;;19.70;67.20;;;;;;7930243;28;20299;-53
2022/04/08 14:20:27;;;;;;;4.43;2.30;;;19.80;67.30;;;;;;7930619;28;20164;-53
2022/04/08 14:24:13;;;;;;;4.40;2.80;;;20.00;66.80;;;;;;7924442;28;20218;-53
2022/04/08 14:27:59;;;;;;;8.43;3.08;;;20.00;66.50;;;;;;7898748;28;20189;-53
2022/04/08 14:31:44;;;;;;;5.93;2.58;;;20.20;66.40;;;;;;7898880;28;20169;-53
2022/04/08 14:35:30;;;;;;;6.50;2.38;;;20.30;66.10;;;;;;7898952;28;20310;-53
2022/04/08 14:39:15;;;;;;;8.30;2.40;;;20.40;65.90;;;;;;7909129;28;20263;-53
2022/04/08 14:43:01;;;;;;;5.28;2.60;;;20.50;65.70;;;;;;7936434;28;20175;-53
2022/04/08 14:46:46;;;;;;;6.13;2.35;;;20.50;65.40;;;;;;7935944;28;20196;-53
2022/04/08 14:50:32;;;;;;;4.75;2.38;;;20.60;65.30;;;;;;7935779;28;20188;-55
2022/04/08 14:54:18;;;;;;;9.98;2.60;;;20.60;65.10;;;;;;7928434;28;20270;-53
2022/04/08 14:58:04;;;;;;;6.22;2.22;;;20.70;65.30;;;;;;7934207;28;20211;-53
2022/04/08 15:01:50;;;;;;;9.35;2.42;;;20.70;65.60;;;;;;7936096;28;20518;-53
2022/04/08 15:05:35;;;;;;;7.05;2.38;;;20.70;65.40;;;;;;7936061;28;20291;-55
2022/04/08 15:09:21;;;;;;;10.52;2.13;;;20.70;65.10;;;;;;7936107;28;20248;-54
2022/04/08 15:13:06;;;;;;;8.05;2.42;;;20.70;64.80;;;;;;7936112;28;20187;-56
2022/04/08 15:16:52;;;;;;;14.90;2.38;;;20.70;65.10;;;;;;7934558;27;20212;-54
2022/04/08 15:20:37;;;;;;;13.25;2.67;;;20.70;65.00;;;;;;7943571;27;20670;-54
2022/04/08 15:24:23;;;;;;;11.48;2.55;;;20.70;65.50;;;;;;7904109;28;20216;-53
2022/04/08 15:28:08;;;;;;;14.65;2.42;;;20.70;64.90;;;;;;7903961;28;20177;-53
2022/04/08 15:31:54;;;;;;;9.88;2.22;;;20.70;64.70;;;;;;7911314;28;20184;-53
2022/04/08 15:35:39;;;;;;;11.90;2.42;;;20.70;64.60;;;;;;7924933;28;20207;-54
2022/04/08 15:39:25;;;;;;;15.70;2.75;;;20.70;65.80;;;;;;7929631;28;20196;-50
2022/04/08 15:43:11;;;;;;;9.95;2.70;;;20.70;65.00;;;;;;7928959;28;20188;-52
2022/04/08 15:46:57;;;;;;;16.40;3.08;;;20.80;65.10;;;;;;7935132;28;20213;-52
2022/04/08 15:50:44;;;;;;;9.50;1.92;;;20.80;64.90;;;;;;7931505;28;20279;-50
2022/04/08 15:54:29;;;;;;;10.38;1.77;;;20.80;64.50;;;;;;7935071;28;20227;-51
2022/04/08 15:58:14;;;;;;;9.88;1.85;;;20.80;64.50;;;;;;7934791;28;20215;-50
2022/04/08 16:02:00;;;;;;;6.97;1.77;;;20.90;65.20;;;;;;7934486;28;20180;-51
2022/04/08 16:05:45;;;;;;;8.80;2.00;;;20.90;65.90;;;;;;7934516;28;20199;-50
2022/04/08 16:09:31;;;;;;;6.47;1.83;;;21.00;66.60;;;;;;7934344;28;20180;-50
2022/04/08 16:13:17;;;;;;;9.00;1.88;;;21.10;68.00;;;;;;7934436;28;20263;-50
2022/04/08 16:17:03;;;;;;;8.40;1.42;;;21.20;67.60;;;;;;7914977;28;20215;-50
2022/04/08 16:20:50;;;;;;;4.10;1.50;;;21.30;67.40;;;;;;7918352;28;20176;-52
2022/04/08 16:24:36;;;;;;;3.25;1.30;;;21.40;67.00;;;;;;7902384;28;20667;-50
2022/04/08 16:28:21;;;;;;;5.78;1.83;;;21.40;67.60;;;;;;7902344;28;20241;-50
2022/04/08 16:32:07;;;;;;;5.78;1.55;;;21.50;67.50;;;;;;7901960;28;20657;-52
2022/04/08 16:35:53;;;;;;;5.38;1.45;;;21.60;66.70;;;;;;7902111;28;20200;-52
2022/04/08 16:39:38;;;;;;;4.68;1.48;;;21.60;66.60;;;;;;7901789;28;20218;-50
2022/04/08 16:43:24;;;;;;;4.15;1.52;;;21.60;64.70;;;;;;7901584;28;20177;-50
2022/04/08 16:47:10;;;;;;;7.50;1.35;;;21.60;65.10;;;;;;7901899;28;20580;-53
2022/04/08 16:50:55;;;;;;;3.42;1.65;;;21.60;65.50;;;;;;7901319;28;20195;-50
2022/04/08 16:54:42;;;;;;;5.22;1.20;;;21.60;65.20;;;;;;7901605;28;20196;-50
2022/04/08 16:58:27;;;;;;;5.53;1.40;;;21.60;65.80;;;;;;7901263;28;20181;-52
2022/04/08 17:02:14;;;;;;;3.63;1.05;;;21.60;65.00;;;;;;7900643;28;20702;-50
2022/04/08 17:05:59;;;;;;;6.40;1.20;;;21.60;64.70;;;;;;7901005;28;20779;-54
2022/04/08 17:09:45;;;;;;;6.07;1.23;;;21.60;65.50;;;;;;7900794;28;20189;-50
2022/04/08 17:13:30;;;;;;;10.20;1.52;;;21.70;64.50;;;;;;7900815;28;20658;-50
2022/04/08 17:17:16;;;;;;;5.40;1.33;;;21.60;64.50;;;;;;7901387;28;20269;-52
2022/04/08 17:21:01;;;;;;;10.63;1.50;;;21.60;64.60;;;;;;7900541;28;20195;-51
2022/04/08 17:24:47;;;;;;;5.47;1.65;;;21.50;64.50;;;;;;7900599;28;20697;-53
2022/04/08 17:28:33;;;;;;;12.57;1.77;;;21.50;64.70;;;;;;7900497;28;20196;-51
2022/04/08 17:32:21;;;;;;;7.00;1.63;;;21.40;64.80;;;;;;7920942;28;20255;-51
2022/04/08 17:36:07;;;;;;;17.45;2.20;;;21.50;65.20;;;;;;7931384;28;20204;-52
2022/04/08 17:39:52;;;;;;;13.07;2.22;;;21.40;65.80;;;;;;7930983;28;20207;-53
2022/04/08 17:43:38;;;;;;;6.95;1.63;;;21.50;66.10;;;;;;7931285;28;20168;-50
2022/04/08 17:47:23;;;;;;;5.80;1.65;;;21.60;67.10;;;;;;7916437;28;20184;-50
2022/04/08 17:51:09;;;;;;;7.55;1.48;;;21.60;68.10;;;;;;7926912;28;20196;-50
2022/04/08 17:54:57;;;;;;;9.93;2.28;;;21.70;68.80;;;;;;7930957;28;20222;-50
2022/04/08 17:58:46;;;;;;;4.50;1.70;;;21.80;68.90;;;;;;7930987;28;20183;-53
2022/04/08 18:02:34;;;;;;;10.55;1.60;;;22.00;69.00;;;;;;7930358;28;20718;-50
2022/04/08 18:06:19;;;;;;;7.18;1.60;;;22.10;69.10;;;;;;7930468;28;20609;-51
2022/04/08 18:10:05;;;;;;;5.63;1.17;;;22.20;69.00;;;;;;7930581;28;20187;-50
2022/04/08 18:13:55;;;;;;;6.38;1.55;;;22.30;69.10;;;;;;7933676;28;20725;-50
2022/04/08 18:17:41;;;;;;;7.43;1.73;;;22.40;69.10;;;;;;7919333;28;20770;-53
2022/04/08 18:21:27;;;;;;;4.88;1.23;;;22.50;69.20;;;;;;7904833;28;20677;-50
2022/04/08 18:25:12;;;;;;;3.97;1.42;;;22.50;69.30;;;;;;7904717;28;20260;-53
2022/04/08 18:28:58;;;;;;;6.00;1.70;;;22.60;69.40;;;;;;7905057;28;20745;-53
2022/04/08 18:32:44;;;;;;;4.13;1.50;;;22.60;69.40;;;;;;7922486;28;20215;-50
2022/04/08 18:36:31;;;;;;;4.80;1.50;;;22.70;69.50;;;;;;7936305;28;20207;-50
2022/04/08 18:40:16;;;;;;;5.45;1.80;;;22.70;69.60;;;;;;7936026;28;20176;-50
2022/04/08 18:44:03;;;;;;;4.40;1.33;;;22.70;69.50;;;;;;7935993;28;20195;-52
2022/04/08 18:47:48;;;;;;;8.45;1.50;;;22.70;69.50;;;;;;7916901;28;20234;-51
2022/04/08 18:51:34;;;;;;;4.25;1.27;;;22.70;69.50;;;;;;7904133;28;20661;-50
2022/04/08 18:55:19;;;;;;;5.30;1.70;;;22.70;69.70;;;;;;7903996;28;20208;-52
2022/04/08 18:59:05;;;;;;;2.72;1.65;;;22.60;69.80;;;;;;7904152;28;20177;-50
2022/04/08 19:02:50;;;;;;;4.72;1.50;;;22.50;69.80;;;;;;7923438;28;20259;-51
2022/04/08 19:06:36;;;;;;;3.28;1.52;;;22.50;70.00;;;;;;7935402;28;20274;-50
2022/04/08 19:10:22;;;;;;;3.50;1.40;;;22.40;70.20;;;;;;7926557;28;20196;-50
2022/04/08 19:14:08;;;;;;;2.80;1.80;;;22.40;70.50;;;;;;7903518;28;20215;-51
2022/04/08 19:17:53;;;;;;;2.20;1.35;;;22.40;70.50;;;;;;7923813;28;20207;-51
2022/04/08 19:21:39;;;;;;;4.57;1.20;;;22.20;71.40;;;;;;7934639;28;20180;-50
2022/04/08 19:25:25;;;;;;;6.35;1.40;;;22.20;70.70;;;;;;7934450;28;20192;-50
2022/04/08 19:29:12;;;;;;;1.83;1.23;;;22.10;70.70;;;;;;7934628;28;20168;-52
2022/04/08 19:32:58;;;;;;;4.80;1.50;;;22.10;70.90;;;;;;7913524;28;20185;-50
2022/04/08 19:36:43;;;;;;;4.45;1.50;;;22.10;71.00;;;;;;7903192;28;20208;-53